Time;durP1;ratioP1;P1;durP2;ratioP2;P2;SDS_P1;SDS_P2;PMS_P1;PMS_P2;Temp;Humidity;BMP_temperature;BMP_pressure;BME280_temperature;BME280_humidity;BME280_pressure;Samples;Min_cycle;Max_cycle;Signal;HPM_P1;HPM_P2
2023/11/25 00:01:05;;;;;;;10.60;5.27;;;2.10;99.90;;;;;;4939353;29;20191;-90
2023/11/25 00:03:33;;;;;;;10.93;4.60;;;2.00;99.90;;;;;;4953898;29;20217;-88
2023/11/25 00:06:02;;;;;;;11.73;4.63;;;2.00;99.90;;;;;;4938354;29;20186;-91
2023/11/25 00:08:29;;;;;;;7.37;4.43;;;2.00;99.90;;;;;;4950840;29;20226;-90
2023/11/25 00:10:57;;;;;;;8.57;4.43;;;2.00;99.90;;;;;;4956348;29;20273;-91
2023/11/25 00:13:24;;;;;;;8.07;4.43;;;2.10;99.90;;;;;;4956264;29;20269;-90
2023/11/25 00:15:52;;;;;;;17.27;4.73;;;2.10;99.90;;;;;;4958204;29;20676;-89
2023/11/25 00:18:22;;;;;;;22.37;6.53;;;2.20;99.90;;;;;;4957711;29;20259;-91
2023/11/25 00:20:51;;;;;;;11.00;4.10;;;2.10;99.90;;;;;;4944445;28;20665;-89
2023/11/25 00:23:19;;;;;;;9.27;4.37;;;2.10;99.90;;;;;;4943388;29;20614;-87
2023/11/25 00:25:47;;;;;;;11.53;4.53;;;2.10;99.90;;;;;;4941776;29;20520;-88
2023/11/25 00:28:16;;;;;;;8.63;4.03;;;2.10;99.90;;;;;;4939981;29;20198;-87
2023/11/25 00:30:45;;;;;;;12.07;4.67;;;2.10;99.90;;;;;;4940818;29;20196;-87
2023/11/25 00:33:16;;;;;;;8.03;4.30;;;2.20;99.90;;;;;;4955403;29;20209;-88
2023/11/25 00:35:44;;;;;;;9.23;4.20;;;2.20;99.90;;;;;;4956671;29;20264;-89
2023/11/25 00:38:12;;;;;;;10.27;4.80;;;2.20;99.90;;;;;;4956011;29;20202;-87
2023/11/25 00:40:41;;;;;;;12.17;4.90;;;2.10;99.90;;;;;;4940006;29;20315;-91
2023/11/25 00:43:13;;;;;;;12.57;5.00;;;2.10;99.90;;;;;;4939773;29;20492;-89
2023/11/25 00:45:42;;;;;;;11.83;5.40;;;2.10;99.90;;;;;;4958295;29;20309;-87
2023/11/25 00:48:10;;;;;;;9.17;5.03;;;1.90;99.90;;;;;;4940852;29;20206;-89
2023/11/25 00:50:37;;;;;;;11.27;5.37;;;1.80;99.90;;;;;;4926468;29;20206;-89
2023/11/25 00:53:05;;;;;;;9.97;5.57;;;1.80;99.90;;;;;;4951367;29;20649;-85
2023/11/25 00:55:34;;;;;;;8.20;5.10;;;1.80;99.90;;;;;;4970479;29;20261;-93
2023/11/25 00:58:06;;;;;;;8.67;5.37;;;1.80;99.90;;;;;;4954416;29;20229;-90
2023/11/25 01:00:34;;;;;;;10.17;4.97;;;1.80;99.90;;;;;;4957870;29;20211;-88
2023/11/25 01:03:02;;;;;;;14.93;5.80;;;1.80;99.90;;;;;;4959988;29;20558;-88
2023/11/25 01:05:30;;;;;;;11.40;5.40;;;1.80;99.90;;;;;;4956806;29;20226;-86
2023/11/25 01:07:57;;;;;;;12.73;5.60;;;1.80;99.90;;;;;;4953817;29;20701;-87
2023/11/25 01:10:26;;;;;;;12.23;5.30;;;1.80;99.90;;;;;;4957776;29;20221;-90
2023/11/25 01:12:55;;;;;;;12.00;5.40;;;1.80;99.90;;;;;;4955657;29;20201;-92
2023/11/25 01:15:24;;;;;;;11.03;5.33;;;1.70;99.90;;;;;;4957224;28;20204;-91
2023/11/25 01:17:52;;;;;;;9.13;5.23;;;1.60;99.90;;;;;;4961850;29;20199;-88
2023/11/25 01:20:19;;;;;;;10.50;5.03;;;1.70;99.90;;;;;;4961870;29;20223;-91
2023/11/25 01:22:47;;;;;;;12.83;5.53;;;1.80;99.90;;;;;;4954254;28;20630;-83
2023/11/25 01:25:15;;;;;;;12.30;5.50;;;1.70;99.90;;;;;;4954810;29;20228;-84
2023/11/25 01:27:42;;;;;;;11.57;5.70;;;1.80;99.90;;;;;;4937688;29;20208;-83
2023/11/25 01:30:10;;;;;;;12.77;6.10;;;1.80;99.90;;;;;;4937258;29;20208;-82
2023/11/25 01:32:37;;;;;;;9.23;5.37;;;1.90;99.90;;;;;;4953170;28;20213;-82
2023/11/25 01:35:05;;;;;;;9.63;5.60;;;2.00;99.90;;;;;;4954587;29;20637;-83
2023/11/25 01:37:33;;;;;;;14.27;5.73;;;2.00;99.90;;;;;;4937150;29;20220;-83
2023/11/25 01:40:05;;;;;;;11.53;5.77;;;2.00;99.90;;;;;;4937556;29;20272;-83
2023/11/25 01:42:32;;;;;;;12.40;5.70;;;2.00;99.90;;;;;;4921333;29;20210;-83
2023/11/25 01:45:00;;;;;;;13.97;5.57;;;2.00;99.90;;;;;;4953229;29;20296;-82
2023/11/25 01:47:28;;;;;;;12.67;5.90;;;2.00;99.90;;;;;;4955564;29;20194;-82
2023/11/25 01:49:56;;;;;;;8.73;5.30;;;1.80;99.90;;;;;;4953041;29;20667;-81
2023/11/25 01:52:24;;;;;;;12.50;5.60;;;1.70;99.90;;;;;;4952999;29;20531;-83
2023/11/25 01:54:52;;;;;;;9.37;5.07;;;1.70;99.90;;;;;;4954597;29;20227;-81
2023/11/25 01:57:20;;;;;;;12.70;5.47;;;1.60;99.90;;;;;;4954363;29;20258;-84
2023/11/25 01:59:49;;;;;;;11.60;5.40;;;1.60;99.90;;;;;;4954234;29;20202;-84
2023/11/25 02:02:20;;;;;;;11.03;5.63;;;1.40;99.90;;;;;;4937595;29;20245;-82
2023/11/25 02:04:48;;;;;;;11.60;5.27;;;1.40;99.90;;;;;;4954439;29;20228;-83
2023/11/25 02:07:15;;;;;;;10.93;5.30;;;1.30;99.90;;;;;;4954094;29;20206;-83
2023/11/25 02:09:42;;;;;;;9.93;5.27;;;1.40;99.90;;;;;;4937057;29;20279;-82
2023/11/25 02:12:11;;;;;;;12.03;5.50;;;1.30;99.90;;;;;;4954083;29;20220;-85
2023/11/25 02:14:38;;;;;;;9.73;4.83;;;1.30;99.90;;;;;;4954131;29;20331;-83
2023/11/25 02:17:05;;;;;;;11.20;5.33;;;1.30;99.90;;;;;;4952822;29;20220;-84
2023/11/25 02:19:32;;;;;;;9.23;4.17;;;1.30;99.90;;;;;;4953249;29;20203;-83
2023/11/25 02:22:00;;;;;;;6.93;4.30;;;1.30;99.90;;;;;;4954321;29;20252;-84
2023/11/25 02:24:29;;;;;;;8.33;4.67;;;1.20;99.90;;;;;;4952856;29;20271;-84
2023/11/25 02:27:01;;;;;;;7.37;4.17;;;1.20;99.90;;;;;;4952652;29;20293;-86
2023/11/25 02:29:28;;;;;;;7.93;4.40;;;1.30;99.90;;;;;;4937309;29;20619;-85
2023/11/25 02:31:58;;;;;;;8.03;4.30;;;1.20;99.90;;;;;;4952690;29;20202;-82
2023/11/25 02:34:26;;;;;;;6.97;4.37;;;1.00;99.90;;;;;;4952855;29;20284;-84
2023/11/25 02:36:54;;;;;;;8.23;4.30;;;1.00;99.90;;;;;;4936735;29;20253;-84
2023/11/25 02:39:22;;;;;;;7.70;4.53;;;1.00;99.90;;;;;;4936842;28;20198;-84
2023/11/25 02:41:51;;;;;;;7.17;4.27;;;1.00;99.90;;;;;;4952788;29;20231;-84
2023/11/25 02:44:19;;;;;;;8.33;4.87;;;1.00;99.90;;;;;;4953998;28;20240;-84
2023/11/25 02:46:48;;;;;;;7.53;4.93;;;1.00;99.90;;;;;;4939924;29;20706;-84
2023/11/25 02:49:16;;;;;;;7.37;4.43;;;1.00;99.90;;;;;;4956618;29;20202;-84
2023/11/25 02:51:50;;;;;;;10.20;5.07;;;0.90;99.90;;;;;;4957816;29;20201;-84
2023/11/25 02:54:22;;;;;;;8.87;4.87;;;0.90;99.90;;;;;;4957474;29;20191;-84
2023/11/25 02:56:50;;;;;;;7.37;5.07;;;1.00;99.90;;;;;;4956134;29;20222;-84
2023/11/25 02:59:17;;;;;;;8.63;4.97;;;0.90;99.90;;;;;;4956550;29;20210;-83
2023/11/25 03:01:51;;;;;;;8.20;4.80;;;1.00;99.90;;;;;;4957477;29;20714;-84
2023/11/25 03:04:20;;;;;;;8.80;5.13;;;1.00;99.90;;;;;;4957293;29;20721;-84
2023/11/25 03:06:51;;;;;;;7.80;5.10;;;1.10;99.90;;;;;;4940383;29;20189;-84
2023/11/25 03:09:19;;;;;;;10.30;5.60;;;1.00;99.90;;;;;;4955868;29;20252;-84
2023/11/25 03:11:47;;;;;;;9.47;6.03;;;1.00;99.90;;;;;;4939721;29;20273;-81
2023/11/25 03:14:15;;;;;;;9.77;5.40;;;1.00;99.90;;;;;;4955834;29;20200;-81
2023/11/25 03:16:43;;;;;;;10.23;5.70;;;1.00;99.90;;;;;;4957036;29;20290;-79
2023/11/25 03:19:10;;;;;;;10.03;5.70;;;0.90;99.90;;;;;;4957016;29;20186;-79
2023/11/25 03:21:38;;;;;;;9.27;5.30;;;0.80;99.90;;;;;;4955488;29;20198;-79
2023/11/25 03:24:07;;;;;;;9.70;5.50;;;0.90;99.90;;;;;;4955675;29;20657;-80
2023/11/25 03:26:35;;;;;;;9.80;5.20;;;0.90;99.90;;;;;;4955525;29;20225;-80
2023/11/25 03:29:02;;;;;;;9.10;5.20;;;1.00;99.90;;;;;;4955935;29;20192;-79
2023/11/25 03:31:29;;;;;;;11.60;5.57;;;1.00;99.90;;;;;;4940108;29;20196;-79
2023/11/25 03:33:57;;;;;;;9.33;5.23;;;1.00;99.90;;;;;;4956694;29;20713;-80
2023/11/25 03:36:24;;;;;;;8.57;5.20;;;1.00;99.90;;;;;;4956960;29;20555;-79
2023/11/25 03:38:51;;;;;;;9.87;5.10;;;1.00;99.90;;;;;;4956742;29;20197;-83
2023/11/25 03:41:19;;;;;;;8.00;4.87;;;0.90;99.90;;;;;;4956658;29;20237;-82
2023/11/25 03:43:47;;;;;;;8.80;4.47;;;1.00;99.90;;;;;;4956555;29;20725;-82
2023/11/25 03:46:14;;;;;;;7.67;4.50;;;1.00;99.90;;;;;;4955566;29;20228;-83
2023/11/25 03:48:41;;;;;;;6.70;4.53;;;1.00;99.90;;;;;;4955584;29;20202;-82
2023/11/25 03:51:12;;;;;;;8.53;4.43;;;1.00;99.90;;;;;;4955239;29;20271;-82
2023/11/25 03:53:39;;;;;;;6.17;4.10;;;1.00;99.90;;;;;;4955570;29;20206;-82
2023/11/25 03:56:06;;;;;;;6.63;4.50;;;1.00;99.90;;;;;;4955724;28;20228;-82
2023/11/25 03:58:35;;;;;;;7.33;4.47;;;0.90;99.90;;;;;;4955214;29;20336;-82
2023/11/25 04:01:03;;;;;;;6.77;4.50;;;0.90;99.90;;;;;;4939119;29;20285;-81
2023/11/25 04:03:30;;;;;;;6.37;4.63;;;1.00;99.90;;;;;;4956199;29;20281;-82
2023/11/25 04:05:57;;;;;;;7.37;4.20;;;1.00;99.90;;;;;;4956131;29;20235;-82
2023/11/25 04:08:24;;;;;;;8.03;4.10;;;1.00;99.90;;;;;;4956086;29;20316;-82
2023/11/25 04:10:52;;;;;;;5.33;3.77;;;0.90;99.90;;;;;;4939059;29;20225;-81
2023/11/25 04:13:20;;;;;;;7.40;4.13;;;0.90;99.90;;;;;;4938908;29;20195;-81
2023/11/25 04:15:47;;;;;;;4.77;3.93;;;1.00;99.90;;;;;;4939165;29;20197;-81
2023/11/25 04:18:14;;;;;;;6.70;4.20;;;1.00;99.90;;;;;;4954834;29;20197;-80
2023/11/25 04:20:41;;;;;;;6.03;4.07;;;1.00;99.90;;;;;;4955816;29;20229;-80
2023/11/25 04:23:09;;;;;;;6.60;4.43;;;0.90;99.90;;;;;;4956982;29;20220;-81
2023/11/25 04:25:36;;;;;;;6.47;4.13;;;0.90;99.90;;;;;;4957257;29;20228;-81
2023/11/25 04:28:06;;;;;;;6.83;4.30;;;0.90;99.90;;;;;;4957700;29;20203;-80
2023/11/25 04:30:35;;;;;;;5.70;4.20;;;1.00;99.90;;;;;;4956963;29;20197;-81
2023/11/25 04:33:02;;;;;;;5.50;3.87;;;1.00;99.90;;;;;;4955879;29;20227;-81
2023/11/25 04:35:29;;;;;;;5.37;4.00;;;1.00;99.90;;;;;;4955845;29;20207;-81
2023/11/25 04:37:56;;;;;;;6.27;3.93;;;1.00;99.90;;;;;;4954426;29;20204;-80
2023/11/25 04:40:24;;;;;;;5.27;3.90;;;1.00;99.90;;;;;;4955763;29;20235;-80
2023/11/25 04:42:51;;;;;;;8.60;4.67;;;1.00;99.90;;;;;;4954309;29;20240;-81
2023/11/25 04:45:20;;;;;;;5.70;3.53;;;0.90;99.90;;;;;;4955487;29;20216;-80
2023/11/25 04:47:49;;;;;;;6.03;4.17;;;0.90;99.90;;;;;;4956273;29;20232;-81
2023/11/25 04:50:20;;;;;;;6.23;3.93;;;0.90;99.90;;;;;;4957240;29;20594;-81
2023/11/25 04:52:47;;;;;;;6.57;3.97;;;0.90;99.90;;;;;;4959742;29;20189;-80
2023/11/25 04:55:15;;;;;;;5.07;3.90;;;0.90;99.90;;;;;;4967452;29;20221;-80
2023/11/25 04:57:44;;;;;;;5.67;4.07;;;1.00;99.90;;;;;;4940596;29;20200;-81
2023/11/25 05:00:13;;;;;;;5.43;4.00;;;1.00;99.90;;;;;;4953939;29;20190;-81
2023/11/25 05:02:42;;;;;;;6.10;4.03;;;1.00;99.90;;;;;;4954134;29;20207;-81
2023/11/25 05:05:11;;;;;;;6.10;4.00;;;1.00;99.90;;;;;;4922174;29;20227;-81
2023/11/25 05:07:38;;;;;;;5.43;3.93;;;1.00;99.90;;;;;;4954512;28;20241;-81
2023/11/25 05:10:09;;;;;;;7.30;4.30;;;1.00;99.90;;;;;;4954926;29;20214;-83
2023/11/25 05:12:37;;;;;;;6.43;4.30;;;0.90;99.90;;;;;;4938123;29;20202;-83
2023/11/25 05:15:06;;;;;;;6.83;4.97;;;1.00;99.90;;;;;;4954852;29;20206;-83
2023/11/25 05:17:34;;;;;;;7.13;4.80;;;0.90;99.90;;;;;;4953711;29;20276;-83
2023/11/25 05:20:01;;;;;;;7.50;4.70;;;0.90;99.90;;;;;;4937684;29;20596;-82
2023/11/25 05:22:29;;;;;;;6.10;4.30;;;0.90;99.90;;;;;;4954747;29;20196;-82
2023/11/25 05:24:56;;;;;;;7.40;5.27;;;0.90;99.90;;;;;;4937377;29;20197;-82
2023/11/25 05:27:23;;;;;;;7.10;4.90;;;0.90;99.90;;;;;;4937618;29;20264;-81
2023/11/25 05:29:50;;;;;;;7.27;4.97;;;0.90;99.90;;;;;;4937360;29;20206;-82
2023/11/25 05:32:17;;;;;;;7.47;5.00;;;0.90;99.90;;;;;;4954879;29;20279;-82
2023/11/25 05:34:45;;;;;;;7.20;5.40;;;0.90;99.90;;;;;;4954515;29;20650;-81
2023/11/25 05:37:13;;;;;;;8.40;5.77;;;0.80;99.90;;;;;;4954831;29;20203;-81
2023/11/25 05:39:40;;;;;;;8.50;5.40;;;0.80;99.90;;;;;;4953288;29;20654;-81
2023/11/25 05:42:08;;;;;;;9.70;5.63;;;0.80;99.90;;;;;;4954408;29;20685;-81
2023/11/25 05:44:35;;;;;;;10.70;5.43;;;0.90;99.90;;;;;;4953194;29;20206;-81
2023/11/25 05:47:02;;;;;;;8.97;5.53;;;0.90;99.90;;;;;;4954410;29;20234;-80
2023/11/25 05:49:30;;;;;;;7.73;5.60;;;0.90;99.90;;;;;;4954666;29;20208;-81
2023/11/25 05:51:57;;;;;;;7.97;5.57;;;0.90;99.90;;;;;;4937078;29;20244;-81
2023/11/25 05:54:27;;;;;;;8.47;5.60;;;1.00;99.90;;;;;;4953217;29;20212;-81
2023/11/25 05:56:54;;;;;;;9.93;6.10;;;0.90;99.90;;;;;;4937992;29;20260;-81
2023/11/25 05:59:21;;;;;;;9.13;6.33;;;0.90;99.90;;;;;;4954530;29;20770;-81
2023/11/25 06:01:49;;;;;;;11.10;5.63;;;0.90;99.90;;;;;;4937187;29;20652;-81
2023/11/25 06:04:17;;;;;;;9.63;6.03;;;0.90;99.90;;;;;;4954555;29;20198;-81
2023/11/25 06:06:48;;;;;;;9.77;5.60;;;0.90;99.90;;;;;;4954592;29;20221;-81
2023/11/25 06:09:15;;;;;;;10.43;6.20;;;0.90;99.90;;;;;;4954070;29;20682;-81
2023/11/25 06:11:43;;;;;;;11.33;6.63;;;1.00;99.90;;;;;;4954120;29;20236;-82
2023/11/25 06:14:12;;;;;;;10.63;6.57;;;0.90;99.90;;;;;;4954196;29;20253;-82
2023/11/25 06:16:42;;;;;;;10.90;6.87;;;0.90;99.90;;;;;;4952977;29;20188;-81
2023/11/25 06:19:10;;;;;;;12.60;7.27;;;0.90;99.90;;;;;;4954618;28;20190;-81
2023/11/25 06:21:38;;;;;;;10.90;6.77;;;1.00;99.90;;;;;;4956862;29;20278;-82
2023/11/25 06:24:08;;;;;;;11.27;6.80;;;0.80;99.90;;;;;;4957346;29;20200;-82
2023/11/25 06:26:35;;;;;;;12.10;7.57;;;0.80;99.90;;;;;;4957852;29;20235;-82
2023/11/25 06:29:02;;;;;;;12.87;7.80;;;0.80;99.90;;;;;;4940656;29;20211;-82
2023/11/25 06:31:33;;;;;;;14.07;8.00;;;0.80;99.90;;;;;;4940677;29;20603;-82
2023/11/25 06:34:03;;;;;;;14.20;7.67;;;0.80;99.90;;;;;;4956955;29;20285;-82
2023/11/25 06:36:31;;;;;;;12.17;7.43;;;0.70;99.90;;;;;;4957795;29;20220;-84
2023/11/25 06:38:58;;;;;;;12.53;7.30;;;0.70;99.90;;;;;;4957744;29;20196;-84
2023/11/25 06:41:27;;;;;;;12.03;6.90;;;0.70;99.90;;;;;;4956666;29;20257;-85
2023/11/25 06:43:55;;;;;;;12.10;7.20;;;0.70;99.90;;;;;;4940430;29;20233;-85
2023/11/25 06:46:22;;;;;;;12.97;7.40;;;0.70;99.90;;;;;;4957494;29;20686;-85
2023/11/25 06:48:52;;;;;;;12.63;7.00;;;0.80;99.90;;;;;;4957972;29;20218;-85
2023/11/25 06:51:19;;;;;;;10.77;6.50;;;0.80;99.90;;;;;;4951285;29;20208;-86
2023/11/25 06:53:46;;;;;;;10.87;6.30;;;0.70;99.90;;;;;;4956036;29;20200;-85
2023/11/25 06:56:16;;;;;;;11.33;6.30;;;0.70;99.90;;;;;;4958362;29;20238;-85
2023/11/25 06:58:45;;;;;;;8.77;5.53;;;0.70;99.90;;;;;;4940228;29;20193;-85
2023/11/25 07:01:19;;;;;;;10.10;6.23;;;0.80;99.90;;;;;;4956733;29;20196;-85
2023/11/25 07:03:46;;;;;;;9.20;6.03;;;0.80;99.90;;;;;;4957424;28;20209;-83
2023/11/25 07:06:17;;;;;;;8.37;5.37;;;0.80;99.90;;;;;;4956783;29;20226;-83
2023/11/25 07:08:45;;;;;;;8.40;4.93;;;1.00;99.90;;;;;;4940137;29;20800;-85
2023/11/25 07:11:16;;;;;;;10.00;4.80;;;0.80;99.90;;;;;;4956860;29;20691;-84
2023/11/25 07:13:43;;;;;;;7.67;5.10;;;0.80;99.90;;;;;;4957168;29;20318;-85
2023/11/25 07:16:13;;;;;;;8.90;5.57;;;0.80;99.90;;;;;;4957152;29;20662;-85
2023/11/25 07:18:44;;;;;;;8.97;5.37;;;0.80;99.90;;;;;;4957185;29;20186;-85
2023/11/25 07:21:11;;;;;;;8.80;4.67;;;0.90;99.90;;;;;;4939668;29;20242;-84
2023/11/25 07:23:39;;;;;;;8.60;5.03;;;0.70;99.90;;;;;;4955750;29;20194;-84
2023/11/25 07:26:06;;;;;;;7.73;4.80;;;0.60;99.90;;;;;;4955741;29;20720;-83
2023/11/25 07:28:35;;;;;;;8.23;4.80;;;0.60;99.90;;;;;;4957126;29;20200;-83
2023/11/25 07:31:02;;;;;;;8.20;4.70;;;0.50;99.90;;;;;;4956140;28;20196;-84
2023/11/25 07:33:30;;;;;;;7.23;4.73;;;0.60;99.90;;;;;;4955608;29;20637;-84
2023/11/25 07:35:57;;;;;;;8.07;4.57;;;0.60;99.90;;;;;;4956847;29;20203;-83
2023/11/25 07:38:25;;;;;;;7.53;4.83;;;0.60;99.90;;;;;;4955561;29;20279;-83
2023/11/25 07:40:52;;;;;;;7.60;4.57;;;0.60;99.90;;;;;;4939873;29;20222;-84
2023/11/25 07:43:19;;;;;;;7.23;3.90;;;0.60;99.90;;;;;;4954984;28;20210;-83
2023/11/25 07:45:46;;;;;;;7.83;4.47;;;0.60;99.90;;;;;;4956717;29;20203;-83
2023/11/25 07:48:13;;;;;;;7.23;4.37;;;0.60;99.90;;;;;;4956513;29;20279;-83
2023/11/25 07:50:45;;;;;;;7.73;4.37;;;0.60;99.90;;;;;;4956700;29;20218;-83
2023/11/25 07:53:17;;;;;;;6.13;4.17;;;0.70;99.90;;;;;;4956663;29;20206;-83
2023/11/25 07:55:44;;;;;;;9.33;4.33;;;0.70;99.90;;;;;;4956127;29;20220;-83
2023/11/25 07:58:12;;;;;;;8.57;4.30;;;0.80;99.90;;;;;;4956665;29;20193;-83
2023/11/25 08:00:39;;;;;;;6.53;4.40;;;1.00;99.90;;;;;;4939242;29;20202;-83
2023/11/25 08:03:06;;;;;;;5.83;3.80;;;1.00;99.90;;;;;;4956975;29;20201;-83
2023/11/25 08:05:34;;;;;;;6.93;3.83;;;0.90;99.90;;;;;;4955030;29;20194;-83
2023/11/25 08:08:03;;;;;;;7.00;3.90;;;0.90;99.90;;;;;;4956118;29;20585;-82
2023/11/25 08:10:34;;;;;;;5.23;3.60;;;0.90;99.90;;;;;;4939180;29;20225;-82
2023/11/25 08:13:02;;;;;;;5.37;3.13;;;0.90;99.90;;;;;;4956174;29;20285;-83
2023/11/25 08:15:30;;;;;;;3.93;3.10;;;0.90;99.90;;;;;;4955915;29;20593;-81
2023/11/25 08:17:58;;;;;;;4.73;3.00;;;0.90;99.90;;;;;;4955973;29;20200;-81
2023/11/25 08:20:26;;;;;;;4.63;3.50;;;1.00;99.90;;;;;;4955965;29;20240;-81
2023/11/25 08:22:53;;;;;;;4.73;3.30;;;1.00;99.90;;;;;;4938915;29;20235;-81
2023/11/25 08:25:20;;;;;;;6.33;3.17;;;1.00;99.90;;;;;;4955994;29;20205;-83
2023/11/25 08:27:50;;;;;;;4.87;3.10;;;1.10;99.90;;;;;;4955578;29;20225;-81
2023/11/25 08:30:17;;;;;;;5.33;3.60;;;1.00;99.90;;;;;;4956295;29;20191;-80
2023/11/25 08:32:45;;;;;;;7.90;3.93;;;1.10;99.90;;;;;;4954704;29;20201;-82
2023/11/25 08:35:12;;;;;;;5.47;3.50;;;1.10;99.90;;;;;;4955957;29;20197;-83
2023/11/25 08:37:40;;;;;;;6.60;4.10;;;1.10;99.90;;;;;;4954662;29;20206;-84
2023/11/25 08:40:17;;;;;;;5.77;3.47;;;1.20;99.90;;;;;;4954203;29;20186;-84
2023/11/25 08:42:45;;;;;;;7.20;3.67;;;1.20;99.90;;;;;;4952965;28;20219;-82
2023/11/25 08:45:13;;;;;;;5.70;3.63;;;1.20;99.90;;;;;;4954372;29;20641;-82
2023/11/25 08:47:42;;;;;;;5.70;3.50;;;1.20;99.90;;;;;;4954584;29;20221;-83
2023/11/25 08:50:15;;;;;;;5.10;3.43;;;1.30;99.90;;;;;;4955721;29;20199;-82
2023/11/25 08:52:48;;;;;;;4.20;3.40;;;1.20;99.90;;;;;;4955353;29;20194;-82
2023/11/25 08:55:18;;;;;;;5.40;3.40;;;1.10;99.90;;;;;;4938337;29;20668;-81
2023/11/25 08:57:47;;;;;;;5.33;3.23;;;1.10;99.90;;;;;;4954285;29;20257;-81
2023/11/25 09:00:18;;;;;;;5.13;3.00;;;1.10;99.90;;;;;;4955189;29;20278;-82
2023/11/25 09:02:48;;;;;;;5.13;2.93;;;1.10;99.90;;;;;;4954176;29;20197;-81
2023/11/25 09:05:21;;;;;;;5.10;3.00;;;1.10;99.90;;;;;;4955885;29;20741;-81
2023/11/25 09:07:55;;;;;;;4.23;3.00;;;1.30;99.90;;;;;;4956149;28;20234;-82
2023/11/25 09:10:24;;;;;;;4.37;3.17;;;1.40;99.90;;;;;;4940371;29;20751;-82
2023/11/25 09:12:53;;;;;;;5.13;3.40;;;1.40;99.90;;;;;;4956322;29;20232;-80
2023/11/25 09:15:21;;;;;;;4.13;3.00;;;1.40;99.90;;;;;;4938177;29;20765;-81
2023/11/25 09:17:48;;;;;;;5.20;3.30;;;1.40;99.90;;;;;;4954344;29;20207;-81
2023/11/25 09:20:17;;;;;;;6.63;4.00;;;1.40;99.90;;;;;;4955368;29;20753;-81
2023/11/25 09:22:44;;;;;;;6.70;4.00;;;1.30;99.90;;;;;;4954744;29;20559;-81
2023/11/25 09:25:12;;;;;;;6.47;4.07;;;1.40;99.90;;;;;;4937331;29;20663;-80
2023/11/25 09:27:44;;;;;;;9.60;4.60;;;1.50;99.90;;;;;;4937617;29;20229;-81
2023/11/25 09:30:12;;;;;;;6.83;4.13;;;1.40;99.90;;;;;;4938025;29;20549;-80
2023/11/25 09:32:41;;;;;;;6.53;3.87;;;1.50;99.90;;;;;;4953650;29;20293;-80
2023/11/25 09:35:11;;;;;;;5.93;3.80;;;1.40;99.90;;;;;;4937193;29;20622;-81
2023/11/25 09:37:40;;;;;;;5.83;3.70;;;1.30;99.90;;;;;;4954575;29;20665;-80
2023/11/25 09:40:14;;;;;;;4.97;3.60;;;1.30;99.90;;;;;;4954935;29;20276;-80
2023/11/25 09:42:44;;;;;;;6.80;4.60;;;1.10;99.90;;;;;;4956017;29;20181;-80
2023/11/25 09:45:12;;;;;;;8.00;4.90;;;1.00;99.90;;;;;;4937774;29;20220;-80
2023/11/25 09:47:43;;;;;;;10.13;5.60;;;1.00;99.90;;;;;;4939376;29;20225;-84
2023/11/25 09:50:13;;;;;;;8.43;5.60;;;0.90;99.90;;;;;;4941125;29;20350;-84
2023/11/25 09:52:52;;;;;;;9.03;5.77;;;0.80;99.90;;;;;;4938262;29;20772;-83
2023/11/25 09:55:22;;;;;;;11.27;6.60;;;0.70;99.90;;;;;;4953570;28;20193;-82
2023/11/25 09:57:56;;;;;;;12.40;7.57;;;0.50;99.90;;;;;;4955319;29;20187;-81
2023/11/25 10:00:26;;;;;;;10.33;7.13;;;0.50;99.90;;;;;;4938472;29;20603;-82
2023/11/25 10:02:57;;;;;;;12.73;7.47;;;0.50;99.90;;;;;;4954287;29;20191;-80
2023/11/25 10:05:26;;;;;;;13.47;7.90;;;0.40;99.90;;;;;;4954445;29;20202;-81
2023/11/25 10:07:53;;;;;;;13.73;7.80;;;0.40;99.90;;;;;;4955230;29;20250;-81
2023/11/25 10:10:24;;;;;;;10.83;7.73;;;0.30;99.90;;;;;;4953973;29;20206;-81
2023/11/25 10:12:51;;;;;;;13.57;7.83;;;0.30;99.90;;;;;;4954910;29;20203;-82
2023/11/25 10:15:20;;;;;;;12.87;8.17;;;0.30;99.90;;;;;;4955872;29;20194;-83
2023/11/25 10:17:51;;;;;;;11.97;8.03;;;0.30;99.90;;;;;;4954969;29;20206;-82
2023/11/25 10:20:22;;;;;;;15.03;7.97;;;0.30;99.90;;;;;;4937260;29;20332;-84
2023/11/25 10:23:01;;;;;;;14.50;8.03;;;0.30;99.90;;;;;;4954123;29;20710;-86
2023/11/25 10:25:29;;;;;;;12.57;7.77;;;0.30;99.90;;;;;;4952950;29;20216;-84
2023/11/25 10:27:57;;;;;;;13.93;8.70;;;0.20;99.90;;;;;;4952833;29;20247;-84
2023/11/25 10:30:25;;;;;;;14.93;8.40;;;0.40;99.90;;;;;;4937255;29;20680;-83
2023/11/25 10:32:56;;;;;;;13.60;8.17;;;0.40;99.90;;;;;;4953152;29;20206;-85
2023/11/25 10:35:24;;;;;;;15.13;8.20;;;0.40;99.90;;;;;;4921337;29;20208;-86
2023/11/25 10:37:52;;;;;;;13.87;8.13;;;0.30;99.90;;;;;;4953211;29;20256;-84
2023/11/25 10:40:19;;;;;;;15.03;8.30;;;0.30;99.90;;;;;;4954908;29;20202;-84
2023/11/25 10:42:47;;;;;;;13.33;8.10;;;0.30;99.90;;;;;;4957070;28;20204;-83
2023/11/25 10:45:17;;;;;;;14.27;8.67;;;0.30;99.90;;;;;;4954812;29;20668;-86
2023/11/25 10:47:45;;;;;;;14.67;8.57;;;0.40;99.90;;;;;;4955039;29;20317;-83
2023/11/25 10:50:15;;;;;;;15.00;8.60;;;0.40;99.90;;;;;;4954101;29;20198;-84
2023/11/25 10:52:44;;;;;;;12.07;8.20;;;0.40;99.90;;;;;;4954761;29;20225;-84
2023/11/25 10:55:12;;;;;;;13.60;8.67;;;0.30;99.90;;;;;;4957280;29;20195;-83
2023/11/25 10:57:40;;;;;;;16.10;10.23;;;0.40;99.90;;;;;;4939186;29;20643;-84
2023/11/25 11:00:12;;;;;;;17.00;9.50;;;0.40;99.90;;;;;;4956743;29;20232;-86
2023/11/25 11:02:53;;;;;;;16.67;9.93;;;0.40;99.90;;;;;;4941478;29;20589;-84
2023/11/25 11:05:27;;;;;;;15.87;9.53;;;0.50;99.90;;;;;;4958197;28;20247;-85
2023/11/25 11:08:07;;;;;;;15.40;10.27;;;0.50;99.90;;;;;;4961451;28;20240;-85
2023/11/25 11:11:31;;;;;;;17.50;10.00;;;0.50;99.90;;;;;;4958771;29;20745;-85
2023/11/25 11:14:12;;;;;;;15.00;9.60;;;0.40;99.90;;;;;;4868342;29;20258;-83
2023/11/25 11:16:40;;;;;;;17.43;9.30;;;0.50;99.90;;;;;;4883586;29;20286;-83
2023/11/25 11:19:08;;;;;;;17.47;9.33;;;0.50;99.90;;;;;;4883830;29;20229;-83
2023/11/25 11:21:39;;;;;;;14.00;8.93;;;0.60;99.90;;;;;;4898880;29;20292;-87
2023/11/25 11:24:12;;;;;;;15.63;8.63;;;0.60;99.90;;;;;;4899042;29;20579;-85
2023/11/25 11:26:48;;;;;;;13.73;8.77;;;0.50;99.90;;;;;;4884621;29;20260;-85
2023/11/25 11:29:20;;;;;;;11.70;8.23;;;0.50;99.90;;;;;;4900366;29;20300;-85
2023/11/25 11:31:59;;;;;;;13.10;9.03;;;0.50;99.90;;;;;;4884976;29;20215;-86
2023/11/25 11:34:31;;;;;;;12.40;8.80;;;0.50;99.90;;;;;;4884420;29;20211;-86
2023/11/25 11:37:00;;;;;;;14.23;9.23;;;0.50;99.90;;;;;;4867844;29;20300;-86
2023/11/25 11:39:37;;;;;;;13.07;9.23;;;0.40;99.90;;;;;;4897568;29;20700;-86
2023/11/25 11:42:22;;;;;;;14.77;9.73;;;0.40;99.90;;;;;;4882132;29;20609;-84
2023/11/25 11:47:54;;;;;;;13.63;8.83;;;0.60;99.90;;;;;;4902818;29;20241;-86
2023/11/25 11:50:32;;;;;;;13.73;9.10;;;0.60;99.90;;;;;;4916060;29;20249;-87
2023/11/25 11:53:02;;;;;;;15.80;9.53;;;0.50;99.90;;;;;;4959783;29;20193;-87
2023/11/25 11:55:41;;;;;;;12.37;8.00;;;0.50;99.90;;;;;;4944805;29;20218;-88
2023/11/25 11:58:13;;;;;;;12.10;7.90;;;0.50;99.90;;;;;;4960709;29;20202;-86
2023/11/25 12:00:55;;;;;;;14.93;8.70;;;0.50;99.90;;;;;;4955254;29;20194;-84
2023/11/25 12:03:22;;;;;;;12.47;7.50;;;0.50;99.90;;;;;;4957300;29;20193;-82
2023/11/25 12:05:51;;;;;;;10.63;7.13;;;0.50;99.90;;;;;;4954865;29;20692;-83
2023/11/25 12:08:20;;;;;;;10.40;6.90;;;0.50;99.90;;;;;;4938957;29;20296;-83
2023/11/25 12:10:49;;;;;;;11.53;7.17;;;0.50;99.90;;;;;;4939437;29;20218;-83
2023/11/25 12:13:36;;;;;;;8.00;6.20;;;0.50;99.90;;;;;;4956428;29;20323;-82
2023/11/25 12:16:06;;;;;;;9.93;6.60;;;0.50;99.90;;;;;;4940785;29;20286;-85
2023/11/25 12:18:34;;;;;;;10.53;6.80;;;0.60;99.90;;;;;;4939747;29;20197;-85
2023/11/25 12:21:04;;;;;;;10.37;6.73;;;0.60;99.90;;;;;;4955769;29;20247;-84
2023/11/25 12:23:33;;;;;;;9.57;6.63;;;0.60;99.90;;;;;;4956201;29;20202;-84
2023/11/25 12:26:05;;;;;;;9.33;6.43;;;0.60;99.90;;;;;;4956408;29;20622;-85
2023/11/25 12:28:42;;;;;;;9.23;6.60;;;0.60;99.90;;;;;;4939085;29;20221;-83
2023/11/25 12:31:10;;;;;;;10.80;6.60;;;0.60;99.90;;;;;;4938699;29;20204;-84
2023/11/25 12:33:39;;;;;;;11.77;7.27;;;0.70;99.90;;;;;;4938812;29;20197;-84
2023/11/25 12:36:07;;;;;;;10.70;7.27;;;0.60;99.90;;;;;;4954909;29;20202;-84
2023/11/25 12:38:36;;;;;;;10.57;7.37;;;0.60;99.90;;;;;;4954504;29;20204;-84
2023/11/25 12:41:11;;;;;;;13.70;7.77;;;0.70;99.90;;;;;;4956212;29;20714;-84
2023/11/25 12:44:05;;;;;;;12.97;8.40;;;0.70;99.90;;;;;;4955992;29;20198;-82
2023/11/25 12:46:33;;;;;;;12.50;7.53;;;0.70;99.90;;;;;;4938820;29;20240;-85
2023/11/25 12:49:23;;;;;;;11.50;7.57;;;0.70;99.90;;;;;;4954691;29;20222;-82
2023/11/25 12:51:52;;;;;;;13.33;7.37;;;0.70;99.90;;;;;;4955678;29;20201;-81
2023/11/25 12:54:20;;;;;;;14.27;7.30;;;0.70;99.90;;;;;;4955364;29;20187;-81
2023/11/25 12:56:52;;;;;;;11.30;7.43;;;0.60;99.90;;;;;;4955128;29;20257;-83
2023/11/25 12:59:28;;;;;;;9.90;6.80;;;0.70;99.90;;;;;;4955650;29;20205;-82
2023/11/25 13:02:09;;;;;;;16.23;7.43;;;0.60;99.90;;;;;;4954407;29;20200;-87
2023/11/25 13:04:46;;;;;;;8.33;6.47;;;0.70;99.90;;;;;;4938315;29;20207;-84
2023/11/25 13:07:33;;;;;;;8.47;6.40;;;0.70;99.90;;;;;;4938250;29;20221;-83